sensor_id;sensor_type;location;lat;lon;timestamp;temperature;humidity
318;DHT22;146;53.448;10.228;2024-01-16T00:00:30;0.80;1.00
318;DHT22;146;53.448;10.228;2024-01-16T00:03:20;0.80;1.00
318;DHT22;146;53.448;10.228;2024-01-16T00:06:10;0.90;1.00
318;DHT22;146;53.448;10.228;2024-01-16T00:09:01;1.00;1.00
318;DHT22;146;53.448;10.228;2024-01-16T00:11:51;1.00;1.00
318;DHT22;146;53.448;10.228;2024-01-16T00:14:42;1.00;1.00
318;DHT22;146;53.448;10.228;2024-01-16T00:17:56;1.00;1.00
318;DHT22;146;53.448;10.228;2024-01-16T00:20:50;1.00;1.00
318;DHT22;146;53.448;10.228;2024-01-16T00:23:42;1.00;1.00
318;DHT22;146;53.448;10.228;2024-01-16T00:26:29;1.00;1.00
318;DHT22;146;53.448;10.228;2024-01-16T00:29:22;0.90;1.00
318;DHT22;146;53.448;10.228;2024-01-16T00:32:11;0.80;1.00
318;DHT22;146;53.448;10.228;2024-01-16T00:35:10;0.80;1.00
318;DHT22;146;53.448;10.228;2024-01-16T00:37:58;0.90;1.00
318;DHT22;146;53.448;10.228;2024-01-16T00:40:52;0.80;1.00
318;DHT22;146;53.448;10.228;2024-01-16T00:43:39;0.80;1.00
318;DHT22;146;53.448;10.228;2024-01-16T00:46:29;0.80;1.00
318;DHT22;146;53.448;10.228;2024-01-16T00:49:18;0.90;1.00
318;DHT22;146;53.448;10.228;2024-01-16T00:52:14;0.90;1.00
318;DHT22;146;53.448;10.228;2024-01-16T00:55:01;1.00;1.00
318;DHT22;146;53.448;10.228;2024-01-16T00:57:54;1.00;1.00
318;DHT22;146;53.448;10.228;2024-01-16T01:00:50;1.00;1.00
318;DHT22;146;53.448;10.228;2024-01-16T01:03:38;1.00;1.00
318;DHT22;146;53.448;10.228;2024-01-16T01:06:29;1.10;1.00
318;DHT22;146;53.448;10.228;2024-01-16T01:09:19;1.00;1.00
318;DHT22;146;53.448;10.228;2024-01-16T01:12:09;1.00;1.00
318;DHT22;146;53.448;10.228;2024-01-16T01:14:57;0.90;1.00
318;DHT22;146;53.448;10.228;2024-01-16T01:17:49;0.80;1.00
318;DHT22;146;53.448;10.228;2024-01-16T01:20:36;0.80;1.00
318;DHT22;146;53.448;10.228;2024-01-16T01:23:24;0.80;1.00
318;DHT22;146;53.448;10.228;2024-01-16T01:26:14;0.80;1.00
318;DHT22;146;53.448;10.228;2024-01-16T01:29:03;0.90;1.00
318;DHT22;146;53.448;10.228;2024-01-16T01:31:53;0.90;1.00
318;DHT22;146;53.448;10.228;2024-01-16T01:34:43;0.90;1.00
318;DHT22;146;53.448;10.228;2024-01-16T01:37:33;0.90;1.00
318;DHT22;146;53.448;10.228;2024-01-16T01:40:24;0.80;1.00
318;DHT22;146;53.448;10.228;2024-01-16T01:43:20;0.70;1.00
318;DHT22;146;53.448;10.228;2024-01-16T01:46:21;0.70;1.00
318;DHT22;146;53.448;10.228;2024-01-16T01:49:09;0.60;1.00
318;DHT22;146;53.448;10.228;2024-01-16T01:52:02;0.50;1.00
318;DHT22;146;53.448;10.228;2024-01-16T01:54:52;0.50;1.00
318;DHT22;146;53.448;10.228;2024-01-16T01:57:43;0.40;1.00
318;DHT22;146;53.448;10.228;2024-01-16T02:00:34;0.40;1.00
318;DHT22;146;53.448;10.228;2024-01-16T02:03:23;0.40;1.00
318;DHT22;146;53.448;10.228;2024-01-16T02:06:12;0.40;1.00
318;DHT22;146;53.448;10.228;2024-01-16T02:09:05;0.40;1.00
318;DHT22;146;53.448;10.228;2024-01-16T02:11:57;0.30;1.00
318;DHT22;146;53.448;10.228;2024-01-16T02:14:46;0.30;1.00
318;DHT22;146;53.448;10.228;2024-01-16T02:17:33;0.20;1.00
318;DHT22;146;53.448;10.228;2024-01-16T02:20:20;0.10;1.00
318;DHT22;146;53.448;10.228;2024-01-16T02:23:10;0.00;1.00
318;DHT22;146;53.448;10.228;2024-01-16T02:26:06;0.00;1.00
318;DHT22;146;53.448;10.228;2024-01-16T02:28:53;0.00;1.00
318;DHT22;146;53.448;10.228;2024-01-16T02:31:41;-0.10;1.00
318;DHT22;146;53.448;10.228;2024-01-16T02:34:28;-0.10;1.00
318;DHT22;146;53.448;10.228;2024-01-16T02:37:16;-0.20;1.00
318;DHT22;146;53.448;10.228;2024-01-16T02:40:10;-0.20;1.00
318;DHT22;146;53.448;10.228;2024-01-16T02:42:59;-0.20;1.00
318;DHT22;146;53.448;10.228;2024-01-16T02:45:52;-0.20;1.00
318;DHT22;146;53.448;10.228;2024-01-16T02:48:42;-0.20;1.00
318;DHT22;146;53.448;10.228;2024-01-16T02:51:33;-0.20;1.00
318;DHT22;146;53.448;10.228;2024-01-16T02:54:27;-0.20;1.00
318;DHT22;146;53.448;10.228;2024-01-16T02:57:20;-0.20;1.00
318;DHT22;146;53.448;10.228;2024-01-16T03:00:23;-0.10;1.00
318;DHT22;146;53.448;10.228;2024-01-16T03:03:10;-0.20;1.00
318;DHT22;146;53.448;10.228;2024-01-16T03:05:57;-0.20;1.00
318;DHT22;146;53.448;10.228;2024-01-16T03:08:51;-0.10;1.00
318;DHT22;146;53.448;10.228;2024-01-16T03:11:42;-0.20;1.00
318;DHT22;146;53.448;10.228;2024-01-16T03:14:29;-0.30;1.00
318;DHT22;146;53.448;10.228;2024-01-16T03:17:24;-0.30;1.00
318;DHT22;146;53.448;10.228;2024-01-16T03:20:14;-0.50;1.00
318;DHT22;146;53.448;10.228;2024-01-16T03:23:12;-0.40;1.00
318;DHT22;146;53.448;10.228;2024-01-16T03:26:02;-0.50;1.00
318;DHT22;146;53.448;10.228;2024-01-16T03:28:50;-0.50;1.00
318;DHT22;146;53.448;10.228;2024-01-16T03:31:40;-0.50;1.00
318;DHT22;146;53.448;10.228;2024-01-16T03:34:30;-0.50;1.00
318;DHT22;146;53.448;10.228;2024-01-16T03:37:20;-0.40;1.00
318;DHT22;146;53.448;10.228;2024-01-16T03:40:10;-0.50;1.00
318;DHT22;146;53.448;10.228;2024-01-16T03:42:58;-0.50;1.00
318;DHT22;146;53.448;10.228;2024-01-16T03:45:45;-0.50;1.00
318;DHT22;146;53.448;10.228;2024-01-16T03:48:50;-0.60;1.00
318;DHT22;146;53.448;10.228;2024-01-16T03:51:41;-0.50;1.00
318;DHT22;146;53.448;10.228;2024-01-16T03:54:44;-0.50;1.00
318;DHT22;146;53.448;10.228;2024-01-16T03:57:31;-0.50;1.00
318;DHT22;146;53.448;10.228;2024-01-16T04:00:21;-0.50;1.00
318;DHT22;146;53.448;10.228;2024-01-16T04:03:08;-0.50;1.00
318;DHT22;146;53.448;10.228;2024-01-16T04:05:55;-0.40;1.00
318;DHT22;146;53.448;10.228;2024-01-16T04:08:44;-0.40;1.00
318;DHT22;146;53.448;10.228;2024-01-16T04:11:31;-0.30;1.00
318;DHT22;146;53.448;10.228;2024-01-16T04:14:18;-0.30;1.00
318;DHT22;146;53.448;10.228;2024-01-16T04:17:06;-0.30;1.00
318;DHT22;146;53.448;10.228;2024-01-16T04:19:53;-0.30;1.00
318;DHT22;146;53.448;10.228;2024-01-16T04:22:52;-0.30;1.00
318;DHT22;146;53.448;10.228;2024-01-16T04:25:41;-0.30;1.00
318;DHT22;146;53.448;10.228;2024-01-16T04:28:28;-0.40;1.00
318;DHT22;146;53.448;10.228;2024-01-16T04:31:15;-0.40;1.00
318;DHT22;146;53.448;10.228;2024-01-16T04:34:11;-0.50;1.00
318;DHT22;146;53.448;10.228;2024-01-16T04:36:58;-0.50;1.00
318;DHT22;146;53.448;10.228;2024-01-16T04:39:48;-0.50;1.00
318;DHT22;146;53.448;10.228;2024-01-16T04:42:50;-0.40;1.00
318;DHT22;146;53.448;10.228;2024-01-16T04:45:37;-0.50;1.00
318;DHT22;146;53.448;10.228;2024-01-16T04:48:24;-0.40;1.00
318;DHT22;146;53.448;10.228;2024-01-16T04:51:11;-0.40;1.00
318;DHT22;146;53.448;10.228;2024-01-16T04:53:58;-0.30;1.00
318;DHT22;146;53.448;10.228;2024-01-16T04:56:50;-0.30;1.00
318;DHT22;146;53.448;10.228;2024-01-16T04:59:51;-0.30;1.00
318;DHT22;146;53.448;10.228;2024-01-16T05:02:50;-0.30;1.00
318;DHT22;146;53.448;10.228;2024-01-16T05:05:38;-0.30;1.00
318;DHT22;146;53.448;10.228;2024-01-16T05:08:25;-0.30;1.00
318;DHT22;146;53.448;10.228;2024-01-16T05:11:12;-0.40;1.00
318;DHT22;146;53.448;10.228;2024-01-16T05:14:02;-0.40;1.00
318;DHT22;146;53.448;10.228;2024-01-16T05:16:51;-0.40;1.00
318;DHT22;146;53.448;10.228;2024-01-16T05:19:50;-0.50;1.00
318;DHT22;146;53.448;10.228;2024-01-16T05:22:40;-0.50;1.00
318;DHT22;146;53.448;10.228;2024-01-16T05:25:27;-0.50;1.00
318;DHT22;146;53.448;10.228;2024-01-16T05:28:17;-0.50;1.00
318;DHT22;146;53.448;10.228;2024-01-16T05:31:04;-0.50;1.00
318;DHT22;146;53.448;10.228;2024-01-16T05:33:53;-0.40;1.00
318;DHT22;146;53.448;10.228;2024-01-16T05:36:40;-0.40;1.00
318;DHT22;146;53.448;10.228;2024-01-16T05:39:27;-0.30;1.00
318;DHT22;146;53.448;10.228;2024-01-16T05:42:14;-0.30;1.00
318;DHT22;146;53.448;10.228;2024-01-16T05:45:02;-0.20;1.00
318;DHT22;146;53.448;10.228;2024-01-16T05:47:50;-0.20;1.00
318;DHT22;146;53.448;10.228;2024-01-16T05:50:44;-0.30;1.00
318;DHT22;146;53.448;10.228;2024-01-16T05:53:37;-0.20;1.00
318;DHT22;146;53.448;10.228;2024-01-16T05:56:27;-0.20;1.00
318;DHT22;146;53.448;10.228;2024-01-16T05:59:15;-0.20;1.00
318;DHT22;146;53.448;10.228;2024-01-16T06:02:05;-0.20;1.00
318;DHT22;146;53.448;10.228;2024-01-16T06:04:58;-0.10;1.00
318;DHT22;146;53.448;10.228;2024-01-16T06:08:00;-0.10;1.00
318;DHT22;146;53.448;10.228;2024-01-16T06:10:48;0.00;1.00
318;DHT22;146;53.448;10.228;2024-01-16T06:13:36;-0.10;1.00
318;DHT22;146;53.448;10.228;2024-01-16T06:16:26;0.00;1.00
318;DHT22;146;53.448;10.228;2024-01-16T06:19:13;0.00;1.00
318;DHT22;146;53.448;10.228;2024-01-16T06:22:00;0.10;1.00
318;DHT22;146;53.448;10.228;2024-01-16T06:24:52;0.10;1.00
318;DHT22;146;53.448;10.228;2024-01-16T06:27:42;0.10;1.00
318;DHT22;146;53.448;10.228;2024-01-16T06:30:29;0.00;1.00
318;DHT22;146;53.448;10.228;2024-01-16T06:33:22;0.00;1.00
318;DHT22;146;53.448;10.228;2024-01-16T06:36:15;0.10;1.00
318;DHT22;146;53.448;10.228;2024-01-16T06:39:02;0.10;1.00
318;DHT22;146;53.448;10.228;2024-01-16T06:41:54;0.10;1.00
318;DHT22;146;53.448;10.228;2024-01-16T06:44:50;0.00;1.00
318;DHT22;146;53.448;10.228;2024-01-16T06:47:37;0.00;1.00
318;DHT22;146;53.448;10.228;2024-01-16T06:50:28;0.00;1.00
318;DHT22;146;53.448;10.228;2024-01-16T06:53:24;0.00;1.00
318;DHT22;146;53.448;10.228;2024-01-16T06:56:15;0.10;1.00
318;DHT22;146;53.448;10.228;2024-01-16T06:59:06;0.10;1.00
318;DHT22;146;53.448;10.228;2024-01-16T07:01:56;0.10;1.00
318;DHT22;146;53.448;10.228;2024-01-16T07:04:43;0.10;1.00
318;DHT22;146;53.448;10.228;2024-01-16T07:07:40;0.10;1.00
318;DHT22;146;53.448;10.228;2024-01-16T07:10:27;0.10;1.00
318;DHT22;146;53.448;10.228;2024-01-16T07:13:15;0.20;1.00
318;DHT22;146;53.448;10.228;2024-01-16T07:16:03;0.20;1.00
318;DHT22;146;53.448;10.228;2024-01-16T07:18:51;0.30;1.00
318;DHT22;146;53.448;10.228;2024-01-16T07:21:39;0.30;1.00
318;DHT22;146;53.448;10.228;2024-01-16T07:24:27;0.30;1.00
318;DHT22;146;53.448;10.228;2024-01-16T07:27:15;0.30;1.00
318;DHT22;146;53.448;10.228;2024-01-16T07:30:04;0.20;1.00
318;DHT22;146;53.448;10.228;2024-01-16T07:32:53;0.30;1.00
318;DHT22;146;53.448;10.228;2024-01-16T07:35:40;0.30;1.00
318;DHT22;146;53.448;10.228;2024-01-16T07:38:29;0.30;1.00
318;DHT22;146;53.448;10.228;2024-01-16T07:41:16;0.30;1.00
318;DHT22;146;53.448;10.228;2024-01-16T07:44:04;0.40;1.00
318;DHT22;146;53.448;10.228;2024-01-16T07:46:55;0.40;1.00
318;DHT22;146;53.448;10.228;2024-01-16T07:49:44;0.40;1.00
318;DHT22;146;53.448;10.228;2024-01-16T07:52:31;0.40;1.00
318;DHT22;146;53.448;10.228;2024-01-16T07:55:18;0.40;1.00
318;DHT22;146;53.448;10.228;2024-01-16T07:58:05;0.40;1.00
318;DHT22;146;53.448;10.228;2024-01-16T08:00:54;0.40;1.00
318;DHT22;146;53.448;10.228;2024-01-16T08:03:41;0.50;1.00
318;DHT22;146;53.448;10.228;2024-01-16T08:06:33;0.50;1.00
318;DHT22;146;53.448;10.228;2024-01-16T08:09:20;0.50;1.00
318;DHT22;146;53.448;10.228;2024-01-16T08:12:08;0.50;1.00
318;DHT22;146;53.448;10.228;2024-01-16T08:14:55;0.60;1.00
318;DHT22;146;53.448;10.228;2024-01-16T08:17:49;0.50;1.00
318;DHT22;146;53.448;10.228;2024-01-16T08:20:36;0.50;1.00
318;DHT22;146;53.448;10.228;2024-01-16T08:23:31;0.50;1.00
318;DHT22;146;53.448;10.228;2024-01-16T08:26:21;0.50;1.00
318;DHT22;146;53.448;10.228;2024-01-16T08:29:11;0.60;1.00
318;DHT22;146;53.448;10.228;2024-01-16T08:32:01;0.50;1.00
318;DHT22;146;53.448;10.228;2024-01-16T08:34:50;0.50;1.00
318;DHT22;146;53.448;10.228;2024-01-16T08:37:43;0.60;1.00
318;DHT22;146;53.448;10.228;2024-01-16T08:40:31;0.50;1.00
318;DHT22;146;53.448;10.228;2024-01-16T08:43:43;0.50;1.00
318;DHT22;146;53.448;10.228;2024-01-16T08:46:30;0.50;1.00
318;DHT22;146;53.448;10.228;2024-01-16T08:49:18;0.50;1.00
318;DHT22;146;53.448;10.228;2024-01-16T08:52:08;0.50;1.00
318;DHT22;146;53.448;10.228;2024-01-16T08:54:55;0.60;1.00
318;DHT22;146;53.448;10.228;2024-01-16T08:57:45;0.70;1.00
318;DHT22;146;53.448;10.228;2024-01-16T09:00:38;0.60;1.00
318;DHT22;146;53.448;10.228;2024-01-16T09:03:25;0.70;1.00
318;DHT22;146;53.448;10.228;2024-01-16T09:06:13;0.70;1.00
318;DHT22;146;53.448;10.228;2024-01-16T09:09:02;0.80;1.00
318;DHT22;146;53.448;10.228;2024-01-16T09:11:52;0.70;1.00
318;DHT22;146;53.448;10.228;2024-01-16T09:14:49;0.70;1.00
318;DHT22;146;53.448;10.228;2024-01-16T09:17:36;0.70;1.00
318;DHT22;146;53.448;10.228;2024-01-16T09:24:01;0.70;1.00
318;DHT22;146;53.448;10.228;2024-01-16T09:26:52;0.60;1.00
318;DHT22;146;53.448;10.228;2024-01-16T09:29:41;0.60;1.00
318;DHT22;146;53.448;10.228;2024-01-16T09:32:45;0.60;1.00
318;DHT22;146;53.448;10.228;2024-01-16T09:35:33;0.60;1.00
318;DHT22;146;53.448;10.228;2024-01-16T09:38:23;0.60;1.00
318;DHT22;146;53.448;10.228;2024-01-16T09:41:13;0.70;1.00
318;DHT22;146;53.448;10.228;2024-01-16T09:44:01;0.70;1.00
318;DHT22;146;53.448;10.228;2024-01-16T09:46:53;0.60;1.00
318;DHT22;146;53.448;10.228;2024-01-16T09:49:47;0.70;1.00
318;DHT22;146;53.448;10.228;2024-01-16T09:52:43;0.70;1.00
318;DHT22;146;53.448;10.228;2024-01-16T09:55:33;0.70;1.00
318;DHT22;146;53.448;10.228;2024-01-16T09:58:28;0.70;1.00
318;DHT22;146;53.448;10.228;2024-01-16T10:02:00;0.60;1.00
318;DHT22;146;53.448;10.228;2024-01-16T10:04:52;0.70;1.00
318;DHT22;146;53.448;10.228;2024-01-16T10:07:58;0.70;1.00
318;DHT22;146;53.448;10.228;2024-01-16T10:10:54;0.70;1.00
318;DHT22;146;53.448;10.228;2024-01-16T10:13:41;0.60;1.00
318;DHT22;146;53.448;10.228;2024-01-16T10:16:57;0.70;1.00
318;DHT22;146;53.448;10.228;2024-01-16T10:19:49;0.60;1.00
318;DHT22;146;53.448;10.228;2024-01-16T10:22:39;0.70;1.00
318;DHT22;146;53.448;10.228;2024-01-16T10:25:33;0.70;1.00
318;DHT22;146;53.448;10.228;2024-01-16T10:28:23;0.70;1.00
318;DHT22;146;53.448;10.228;2024-01-16T10:31:13;0.70;1.00
318;DHT22;146;53.448;10.228;2024-01-16T10:34:18;0.70;1.00
318;DHT22;146;53.448;10.228;2024-01-16T10:37:06;0.80;1.00
318;DHT22;146;53.448;10.228;2024-01-16T10:39:54;0.70;1.00
318;DHT22;146;53.448;10.228;2024-01-16T10:42:42;0.70;1.00
318;DHT22;146;53.448;10.228;2024-01-16T10:45:30;0.70;1.00
318;DHT22;146;53.448;10.228;2024-01-16T10:48:17;0.80;1.00
318;DHT22;146;53.448;10.228;2024-01-16T10:51:06;0.90;1.00
318;DHT22;146;53.448;10.228;2024-01-16T10:53:59;0.90;1.00
318;DHT22;146;53.448;10.228;2024-01-16T10:56:50;0.90;1.00
318;DHT22;146;53.448;10.228;2024-01-16T10:59:42;1.00;1.00
318;DHT22;146;53.448;10.228;2024-01-16T11:02:40;1.00;1.00
318;DHT22;146;53.448;10.228;2024-01-16T11:05:31;1.00;1.00
318;DHT22;146;53.448;10.228;2024-01-16T11:08:20;1.00;1.00
318;DHT22;146;53.448;10.228;2024-01-16T11:11:08;1.00;1.00
318;DHT22;146;53.448;10.228;2024-01-16T11:13:57;1.00;1.00
318;DHT22;146;53.448;10.228;2024-01-16T11:16:50;1.00;1.00
318;DHT22;146;53.448;10.228;2024-01-16T11:19:39;1.00;1.00
318;DHT22;146;53.448;10.228;2024-01-16T11:22:29;1.10;1.00
318;DHT22;146;53.448;10.228;2024-01-16T11:25:19;1.10;1.00
318;DHT22;146;53.448;10.228;2024-01-16T11:28:11;1.10;1.00
318;DHT22;146;53.448;10.228;2024-01-16T11:31:30;1.10;1.00
318;DHT22;146;53.448;10.228;2024-01-16T11:34:55;1.00;1.00
318;DHT22;146;53.448;10.228;2024-01-16T11:37:52;1.00;1.00
318;DHT22;146;53.448;10.228;2024-01-16T11:40:40;1.00;1.00
318;DHT22;146;53.448;10.228;2024-01-16T11:43:36;1.00;1.00
318;DHT22;146;53.448;10.228;2024-01-16T11:46:59;1.00;1.00
318;DHT22;146;53.448;10.228;2024-01-16T11:49:51;1.00;1.00
318;DHT22;146;53.448;10.228;2024-01-16T11:52:39;1.10;1.00
318;DHT22;146;53.448;10.228;2024-01-16T11:55:31;1.10;1.00
318;DHT22;146;53.448;10.228;2024-01-16T11:58:35;1.10;1.00
318;DHT22;146;53.448;10.228;2024-01-16T12:01:27;1.10;1.00
318;DHT22;146;53.448;10.228;2024-01-16T12:04:24;1.20;1.00
318;DHT22;146;53.448;10.228;2024-01-16T12:07:22;1.30;1.00
318;DHT22;146;53.448;10.228;2024-01-16T12:10:10;1.30;1.00
318;DHT22;146;53.448;10.228;2024-01-16T12:13:02;1.30;1.00
318;DHT22;146;53.448;10.228;2024-01-16T12:15:59;1.40;1.00
318;DHT22;146;53.448;10.228;2024-01-16T12:18:48;1.40;1.00
318;DHT22;146;53.448;10.228;2024-01-16T12:21:43;1.40;1.00
318;DHT22;146;53.448;10.228;2024-01-16T12:24:33;1.50;1.00
318;DHT22;146;53.448;10.228;2024-01-16T12:27:23;1.50;1.00
318;DHT22;146;53.448;10.228;2024-01-16T12:30:18;1.40;1.00
318;DHT22;146;53.448;10.228;2024-01-16T12:33:13;1.40;1.00
318;DHT22;146;53.448;10.228;2024-01-16T12:36:03;1.40;1.00
318;DHT22;146;53.448;10.228;2024-01-16T12:38:56;1.40;1.00
318;DHT22;146;53.448;10.228;2024-01-16T12:41:57;1.50;1.00
318;DHT22;146;53.448;10.228;2024-01-16T12:44:51;1.40;1.00
318;DHT22;146;53.448;10.228;2024-01-16T12:47:41;1.50;1.00
318;DHT22;146;53.448;10.228;2024-01-16T12:50:31;1.60;1.00
318;DHT22;146;53.448;10.228;2024-01-16T12:53:26;1.50;1.00
318;DHT22;146;53.448;10.228;2024-01-16T12:56:18;1.60;1.00
318;DHT22;146;53.448;10.228;2024-01-16T12:59:12;1.40;1.00
318;DHT22;146;53.448;10.228;2024-01-16T13:01:59;1.40;1.00
318;DHT22;146;53.448;10.228;2024-01-16T13:04:55;1.40;1.00
318;DHT22;146;53.448;10.228;2024-01-16T13:07:46;1.50;1.00
318;DHT22;146;53.448;10.228;2024-01-16T13:11:08;1.50;1.00
318;DHT22;146;53.448;10.228;2024-01-16T13:14:26;1.50;1.00
318;DHT22;146;53.448;10.228;2024-01-16T13:17:16;1.60;1.00
318;DHT22;146;53.448;10.228;2024-01-16T13:20:10;1.60;1.00
318;DHT22;146;53.448;10.228;2024-01-16T13:23:01;1.60;1.00
318;DHT22;146;53.448;10.228;2024-01-16T13:25:52;1.50;1.00
318;DHT22;146;53.448;10.228;2024-01-16T13:28:47;1.50;1.00
318;DHT22;146;53.448;10.228;2024-01-16T13:31:55;1.60;1.00
318;DHT22;146;53.448;10.228;2024-01-16T13:34:45;1.60;1.00
318;DHT22;146;53.448;10.228;2024-01-16T13:37:55;1.60;1.00
318;DHT22;146;53.448;10.228;2024-01-16T13:40:45;1.50;1.00
318;DHT22;146;53.448;10.228;2024-01-16T13:43:44;1.60;1.00
318;DHT22;146;53.448;10.228;2024-01-16T13:46:54;1.70;1.00
318;DHT22;146;53.448;10.228;2024-01-16T13:49:43;1.70;1.00
318;DHT22;146;53.448;10.228;2024-01-16T13:52:34;1.70;1.00
318;DHT22;146;53.448;10.228;2024-01-16T13:55:21;1.70;1.00
318;DHT22;146;53.448;10.228;2024-01-16T13:58:11;1.50;1.00
318;DHT22;146;53.448;10.228;2024-01-16T14:01:01;1.50;1.00
318;DHT22;146;53.448;10.228;2024-01-16T14:03:51;1.50;1.00
318;DHT22;146;53.448;10.228;2024-01-16T14:06:41;1.50;1.00
318;DHT22;146;53.448;10.228;2024-01-16T14:09:33;1.40;1.00
318;DHT22;146;53.448;10.228;2024-01-16T14:12:23;1.50;1.00
318;DHT22;146;53.448;10.228;2024-01-16T14:15:11;1.50;1.00
318;DHT22;146;53.448;10.228;2024-01-16T14:18:19;1.70;1.00
318;DHT22;146;53.448;10.228;2024-01-16T14:21:07;1.70;1.00
318;DHT22;146;53.448;10.228;2024-01-16T14:24:00;1.80;1.00
318;DHT22;146;53.448;10.228;2024-01-16T14:26:50;1.80;1.00
318;DHT22;146;53.448;10.228;2024-01-16T14:29:38;1.80;1.00
318;DHT22;146;53.448;10.228;2024-01-16T14:32:25;1.80;1.00
318;DHT22;146;53.448;10.228;2024-01-16T14:35:13;1.80;1.00
318;DHT22;146;53.448;10.228;2024-01-16T14:38:04;1.80;1.00
318;DHT22;146;53.448;10.228;2024-01-16T14:40:51;1.70;1.00
318;DHT22;146;53.448;10.228;2024-01-16T14:43:41;1.70;1.00
318;DHT22;146;53.448;10.228;2024-01-16T14:46:51;1.70;1.00
318;DHT22;146;53.448;10.228;2024-01-16T14:49:42;1.70;1.00
318;DHT22;146;53.448;10.228;2024-01-16T14:52:38;1.70;1.00
318;DHT22;146;53.448;10.228;2024-01-16T14:55:27;1.60;1.00
318;DHT22;146;53.448;10.228;2024-01-16T14:58:14;1.70;1.00
318;DHT22;146;53.448;10.228;2024-01-16T15:01:04;1.60;1.00
318;DHT22;146;53.448;10.228;2024-01-16T15:03:52;1.60;1.00
318;DHT22;146;53.448;10.228;2024-01-16T15:06:46;1.40;1.00
318;DHT22;146;53.448;10.228;2024-01-16T15:09:42;1.50;1.00
318;DHT22;146;53.448;10.228;2024-01-16T15:12:39;1.50;1.00
318;DHT22;146;53.448;10.228;2024-01-16T15:15:27;1.60;1.00
318;DHT22;146;53.448;10.228;2024-01-16T15:18:16;1.50;1.00
318;DHT22;146;53.448;10.228;2024-01-16T15:21:10;1.50;1.00
318;DHT22;146;53.448;10.228;2024-01-16T15:24:06;1.50;1.00
318;DHT22;146;53.448;10.228;2024-01-16T15:26:53;1.40;1.00
318;DHT22;146;53.448;10.228;2024-01-16T15:29:57;1.40;1.00
318;DHT22;146;53.448;10.228;2024-01-16T15:32:45;1.50;1.00
318;DHT22;146;53.448;10.228;2024-01-16T15:35:33;1.50;1.00
318;DHT22;146;53.448;10.228;2024-01-16T15:38:20;1.50;1.00
318;DHT22;146;53.448;10.228;2024-01-16T15:41:07;1.60;1.00
318;DHT22;146;53.448;10.228;2024-01-16T15:44:10;1.60;1.00
318;DHT22;146;53.448;10.228;2024-01-16T15:47:00;1.70;1.00
318;DHT22;146;53.448;10.228;2024-01-16T15:49:57;1.80;1.00
318;DHT22;146;53.448;10.228;2024-01-16T15:52:51;1.80;1.00
318;DHT22;146;53.448;10.228;2024-01-16T15:55:39;1.80;1.00
318;DHT22;146;53.448;10.228;2024-01-16T15:58:31;1.80;1.00
318;DHT22;146;53.448;10.228;2024-01-16T16:01:30;1.90;1.00
318;DHT22;146;53.448;10.228;2024-01-16T16:04:23;1.80;1.00
318;DHT22;146;53.448;10.228;2024-01-16T16:07:10;1.80;1.00
318;DHT22;146;53.448;10.228;2024-01-16T16:10:00;1.80;1.00
318;DHT22;146;53.448;10.228;2024-01-16T16:12:50;1.80;1.00
318;DHT22;146;53.448;10.228;2024-01-16T16:15:49;1.80;1.00
318;DHT22;146;53.448;10.228;2024-01-16T16:18:37;1.70;1.00
318;DHT22;146;53.448;10.228;2024-01-16T16:21:33;1.70;1.00
318;DHT22;146;53.448;10.228;2024-01-16T16:24:39;1.80;1.00
318;DHT22;146;53.448;10.228;2024-01-16T16:27:29;1.80;1.00
318;DHT22;146;53.448;10.228;2024-01-16T16:30:30;1.80;1.00
318;DHT22;146;53.448;10.228;2024-01-16T16:33:22;1.80;1.00
318;DHT22;146;53.448;10.228;2024-01-16T16:36:10;1.70;1.00
318;DHT22;146;53.448;10.228;2024-01-16T16:39:01;1.70;1.00
318;DHT22;146;53.448;10.228;2024-01-16T16:41:48;1.80;1.00
318;DHT22;146;53.448;10.228;2024-01-16T16:44:43;1.80;1.00
318;DHT22;146;53.448;10.228;2024-01-16T16:47:30;1.90;1.00
318;DHT22;146;53.448;10.228;2024-01-16T16:50:17;1.90;1.00
318;DHT22;146;53.448;10.228;2024-01-16T16:53:10;2.00;1.00
318;DHT22;146;53.448;10.228;2024-01-16T16:56:02;2.10;1.00
318;DHT22;146;53.448;10.228;2024-01-16T16:59:01;2.10;1.00
318;DHT22;146;53.448;10.228;2024-01-16T17:01:54;2.00;1.00
318;DHT22;146;53.448;10.228;2024-01-16T17:04:50;2.10;1.00
318;DHT22;146;53.448;10.228;2024-01-16T17:07:40;2.10;1.00
318;DHT22;146;53.448;10.228;2024-01-16T17:10:30;2.00;1.00
318;DHT22;146;53.448;10.228;2024-01-16T17:13:19;2.00;1.00
318;DHT22;146;53.448;10.228;2024-01-16T17:16:09;1.90;1.00
318;DHT22;146;53.448;10.228;2024-01-16T17:19:02;1.90;1.00
318;DHT22;146;53.448;10.228;2024-01-16T17:21:49;1.80;1.00
318;DHT22;146;53.448;10.228;2024-01-16T17:24:42;1.80;1.00
318;DHT22;146;53.448;10.228;2024-01-16T17:27:39;1.70;1.00
318;DHT22;146;53.448;10.228;2024-01-16T17:30:30;1.70;1.00
318;DHT22;146;53.448;10.228;2024-01-16T17:33:20;1.70;1.00
318;DHT22;146;53.448;10.228;2024-01-16T17:36:10;1.70;1.00
318;DHT22;146;53.448;10.228;2024-01-16T17:38:58;1.70;1.00
318;DHT22;146;53.448;10.228;2024-01-16T17:41:54;1.60;1.00
318;DHT22;146;53.448;10.228;2024-01-16T17:44:50;1.60;1.00
318;DHT22;146;53.448;10.228;2024-01-16T17:47:39;1.60;1.00
318;DHT22;146;53.448;10.228;2024-01-16T17:50:26;1.60;1.00
318;DHT22;146;53.448;10.228;2024-01-16T17:53:13;1.70;1.00
318;DHT22;146;53.448;10.228;2024-01-16T17:56:00;1.70;1.00
318;DHT22;146;53.448;10.228;2024-01-16T17:58:48;1.60;1.00
318;DHT22;146;53.448;10.228;2024-01-16T18:01:35;1.50;1.00
318;DHT22;146;53.448;10.228;2024-01-16T18:04:24;1.50;1.00
318;DHT22;146;53.448;10.228;2024-01-16T18:07:11;1.40;1.00
318;DHT22;146;53.448;10.228;2024-01-16T18:09:59;1.50;1.00
318;DHT22;146;53.448;10.228;2024-01-16T18:12:47;1.50;1.00
318;DHT22;146;53.448;10.228;2024-01-16T18:15:34;1.50;1.00
318;DHT22;146;53.448;10.228;2024-01-16T18:18:21;1.50;1.00
318;DHT22;146;53.448;10.228;2024-01-16T18:21:10;1.50;1.00
318;DHT22;146;53.448;10.228;2024-01-16T18:23:57;1.50;1.00
318;DHT22;146;53.448;10.228;2024-01-16T18:26:45;1.50;1.00
318;DHT22;146;53.448;10.228;2024-01-16T18:29:33;1.50;1.00
318;DHT22;146;53.448;10.228;2024-01-16T18:32:20;1.50;1.00
318;DHT22;146;53.448;10.228;2024-01-16T18:35:07;1.50;1.00
318;DHT22;146;53.448;10.228;2024-01-16T18:37:59;1.50;1.00
318;DHT22;146;53.448;10.228;2024-01-16T18:40:49;1.50;1.00
318;DHT22;146;53.448;10.228;2024-01-16T18:43:38;1.50;1.00
318;DHT22;146;53.448;10.228;2024-01-16T18:46:27;1.60;1.00
318;DHT22;146;53.448;10.228;2024-01-16T18:49:16;1.60;1.00
318;DHT22;146;53.448;10.228;2024-01-16T18:52:04;1.60;1.00
318;DHT22;146;53.448;10.228;2024-01-16T18:54:53;1.50;1.00
318;DHT22;146;53.448;10.228;2024-01-16T18:57:41;1.40;1.00
318;DHT22;146;53.448;10.228;2024-01-16T19:00:28;1.40;1.00
318;DHT22;146;53.448;10.228;2024-01-16T19:03:19;1.40;1.00
318;DHT22;146;53.448;10.228;2024-01-16T19:06:06;1.40;1.00
318;DHT22;146;53.448;10.228;2024-01-16T19:08:58;1.40;1.00
318;DHT22;146;53.448;10.228;2024-01-16T19:11:50;1.40;1.00
318;DHT22;146;53.448;10.228;2024-01-16T19:14:39;1.40;1.00
318;DHT22;146;53.448;10.228;2024-01-16T19:17:26;1.40;1.00
318;DHT22;146;53.448;10.228;2024-01-16T19:20:15;1.40;1.00
318;DHT22;146;53.448;10.228;2024-01-16T19:23:07;1.30;1.00
318;DHT22;146;53.448;10.228;2024-01-16T19:25:54;1.30;1.00
318;DHT22;146;53.448;10.228;2024-01-16T19:28:45;1.20;1.00
318;DHT22;146;53.448;10.228;2024-01-16T19:31:32;1.20;1.00
318;DHT22;146;53.448;10.228;2024-01-16T19:34:21;1.30;1.00
318;DHT22;146;53.448;10.228;2024-01-16T19:37:08;1.20;1.00